Latest Weather Observations for Tamworth Airport

IDN60801

Issued at 7:32 am EDT Saturday 13 February 2016 (issued every 30 minutes, with the page automatically refreshed every 10 minutes)

About weather observations | Map of weather stations | Latest weather observations for NSW | Other Formats
Station Details ID: 055325 Name: TAMWORTH AIRPORT AWS Lat: -31.07 Lon: 150.84 Height: 394.9 m
Data from the previous 72 hours. | See also: Recent months at Tamworth Airport
Date/Time
EDT
Temp
°C
App
Temp
°C
Dew
Point
Rel
Hum
%
Delta-T
°C
Wind Press
QNH
hPa
Press
MSL
hPa
Rain
since 9 am
mm
Dir
 
Spd
km/h
Gust
km/h
Spd
kts
Gust
kts
13/07:30am 18.8 17.3 13.2 70 3.2 ESE 13 15 7 8 1015.3 1013.2 0.0
13/07:00am 15.7 14.0 12.6 82 1.7 SSE 13 15 7 8 1015.2 1013.1 0.0
13/06:30am 15.3 13.5 12.1 81 1.8 SE 13 15 7 8 1015.0 1012.9 0.0
13/06:00am 15.9 14.9 12.3 79 2.0 ESE 9 11 5 6 1014.6 1012.4 0.0
13/05:30am 16.7 14.7 12.7 77 2.3 SE 15 17 8 9 1014.4 1012.2 0.0
13/05:00am 16.8 14.8 12.7 77 2.3 SE 15 17 8 9 1014.2 1012.0 0.0
13/04:30am 17.1 15.5 12.8 76 2.4 ESE 13 15 7 8 1014.2 1012.0 0.0
13/04:00am 17.3 16.1 12.8 75 2.6 SE 11 15 6 8 1014.3 1012.1 0.0
13/03:30am 17.4 16.2 12.9 75 2.6 SSE 11 13 6 7 1014.5 1012.3 0.0
13/03:00am 17.7 16.7 12.4 71 3.0 ESE 9 11 5 6 1014.6 1012.4 0.0
13/02:30am 18.7 17.6 13.1 70 3.2 ESE 11 13 6 7 1014.7 1012.5 0.0
13/02:00am 18.7 17.2 13.1 70 3.2 SE 13 15 7 8 1014.8 1012.6 0.0
13/01:30am 19.5 18.4 13.2 67 3.6 ESE 11 13 6 7 1015.0 1012.9 0.0
13/01:00am 20.2 18.9 12.4 61 4.5 ESE 11 13 6 7 1015.1 1013.0 0.0
13/12:30am 21.6 20.1 13.0 58 5.0 E 13 15 7 8 1015.1 1013.0 0.0
13/12:00am 22.3 20.3 12.8 55 5.5 ESE 15 19 8 10 1015.1 1013.0 0.0
 
Date/Time
EDT
Temp
°C
App
Temp
°C
Dew
Point
Rel
Hum
%
Delta-T
°C
Wind Press
QNH
hPa
Press
MSL
hPa
Rain
since 9 am
mm
Dir
 
Spd
km/h
Gust
km/h
Spd
kts
Gust
kts
12/11:30pm 23.1 20.1 12.4 51 6.2 ESE 20 28 11 15 1015.0 1012.9 0.0
12/11:00pm 23.3 20.6 11.7 48 6.6 SE 17 24 9 13 1014.9 1012.7 0.0
12/10:30pm 23.7 20.5 11.1 45 7.2 ESE 19 22 10 12 1014.8 1012.6 0.0
12/10:00pm 24.5 21.0 10.8 42 7.8 ESE 20 26 11 14 1014.6 1012.4 0.0
12/09:30pm 24.1 21.2 9.7 40 8.0 SE 15 19 8 10 1014.6 1012.4 0.0
12/09:00pm 25.2 21.7 8.7 35 9.1 SE 17 20 9 11 1014.4 1012.2 0.0
12/08:30pm 26.2 22.2 8.2 32 9.9 SE 19 20 10 11 1014.0 1011.8 0.0
12/08:00pm 27.6 22.6 8.0 29 10.8 ESE 24 30 13 16 1013.7 1011.5 0.0
12/07:30pm 28.7 23.3 7.9 27 11.5 ESE 26 32 14 17 1013.4 1011.2 0.0
12/07:00pm 30.2 25.2 8.0 25 12.4 ESE 24 33 13 18 1012.9 1010.7 0.0
12/06:30pm 31.0 26.7 6.8 22 13.3 ESE 19 26 10 14 1012.6 1010.4 0.0
12/06:00pm 32.3 27.1 7.2 21 14.0 ESE 24 37 13 20 1012.4 1010.2 0.0
12/05:30pm 33.0 28.4 6.3 19 14.7 SSE 20 30 11 16 1012.2 1010.0 0.0
12/05:00pm 33.2 28.8 6.5 19 14.8 S 19 33 10 18 1012.1 1009.9 0.0
12/04:30pm 32.9 27.8 6.2 19 14.6 SE 22 35 12 19 1012.3 1010.1 0.0
12/04:28pm 32.8 27.7 6.2 19 14.6 SE 22 35 12 19 1012.3 1010.1 0.0
12/04:00pm 32.6 30.5 8.1 22 13.8 S 9 22 5 12 1012.5 1010.3 0.0
12/03:30pm 31.8 28.1 8.1 23 13.3 ESE 17 33 9 18 1012.9 1010.7 0.0
12/03:00pm 31.8 29.7 8.1 23 13.3 ESE 9 22 5 12 1013.4 1011.2 0.0
12/02:30pm 31.9 28.3 8.2 23 13.4 SE 17 28 9 15 1013.9 1011.7 0.0
12/02:00pm 30.8 27.6 8.5 25 12.6 SE 15 22 8 12 1014.3 1012.1 0.0
12/01:30pm 29.6 27.7 9.2 28 11.6 ESE 9 15 5 8 1014.7 1012.5 0.0
12/01:00pm 30.9 28.8 9.7 27 12.2 ESE 11 20 6 11 1015.0 1012.9 0.0
12/12:30pm 29.8 27.2 9.3 28 11.6 ESE 13 24 7 13 1015.5 1013.3 0.0
12/12:00pm 28.1 25.1 9.4 31 10.5 ESE 15 20 8 11 1015.9 1013.7 0.0
12/11:30am 27.2 24.0 8.6 31 10.3 ESE 15 26 8 14 1016.3 1014.1 0.0
12/11:00am 27.2 25.4 9.5 33 10.0 ENE 9 20 5 11 1016.5 1014.3 0.0
12/10:30am 26.3 24.2 9.6 35 9.4 E 11 19 6 10 1016.7 1014.5 0.0
12/10:00am 25.7 23.7 11.5 41 8.2 ESE 13 19 7 10 1016.9 1014.7 0.0
12/09:30am 24.0 22.1 11.7 46 7.1 ESE 13 19 7 10 1016.9 1014.7 0.0
12/09:00am 23.5 21.7 12.2 49 6.5 SE 13 19 7 10 1017.0 1014.8 0.0
12/08:30am 22.4 20.4 12.6 54 5.7 ESE 15 19 8 10 1016.8 1014.6 0.0
12/08:00am 19.7 18.1 12.7 64 4.0 SE 13 15 7 8 1016.5 1014.3 0.0
12/07:30am 19.2 17.5 12.5 65 3.8 ESE 13 17 7 9 1016.2 1014.0 0.0
12/07:00am 18.4 16.5 13.1 71 3.0 ESE 15 17 8 9 1015.8 1013.6 0.0
12/06:30am 17.4 15.7 12.5 73 2.8 ESE 13 17 7 9 1015.7 1013.5 0.0
12/06:00am 17.3 15.9 12.2 72 2.9 ESE 11 13 6 7 1015.5 1013.3 0.0
12/05:30am 17.2 15.4 12.1 72 2.9 SE 13 15 7 8 1015.2 1013.1 0.0
12/05:00am 17.9 16.2 12.4 70 3.1 SSE 13 15 7 8 1014.8 1012.6 0.0
12/04:30am 18.9 18.3 12.2 65 3.8 SE 7 13 4 7 1014.7 1012.5 0.0
12/04:00am 18.2 16.9 12.6 70 3.2 ESE 11 15 6 8 1014.7 1012.5 0.0
12/03:30am 18.4 17.4 12.4 68 3.4 ESE 9 13 5 7 1014.8 1012.6 0.0
12/03:00am 19.8 19.5 13.3 66 3.8 E 7 11 4 6 1014.9 1012.7 0.0
12/02:30am 20.7 19.8 13.6 64 4.2 E 11 13 6 7 1014.9 1012.7 0.0
12/02:00am 21.5 20.4 13.2 59 4.8 ENE 11 17 6 9 1014.8 1012.6 0.0
12/01:30am 22.5 19.8 13.6 57 5.3 ESE 20 26 11 14 1015.2 1013.1 0.0
12/01:00am 22.8 19.8 13.8 57 5.3 ESE 22 28 12 15 1015.3 1013.2 0.0
12/12:30am 23.2 20.9 14.2 57 5.4 E 19 24 10 13 1015.6 1013.4 0.0
12/12:00am 23.0 21.0 14.0 57 5.4 ESE 17 22 9 12 1015.8 1013.6 0.0
 
Date/Time
EDT
Temp
°C
App
Temp
°C
Dew
Point
Rel
Hum
%
Delta-T
°C
Wind Press
QNH
hPa
Press
MSL
hPa
Rain
since 9 am
mm
Dir
 
Spd
km/h
Gust
km/h
Spd
kts
Gust
kts
11/11:30pm 22.8 20.6 13.3 55 5.6 SE 17 20 9 11 1015.5 1013.3 0.0
11/11:00pm 23.6 21.3 12.9 51 6.3 SE 17 20 9 11 1015.5 1013.3 0.0
11/10:30pm 24.3 21.5 12.6 48 6.8 SE 19 24 10 13 1015.0 1012.9 0.0
11/10:00pm 25.2 21.8 11.4 42 7.9 SE 20 28 11 15 1014.6 1012.4 0.0
11/09:30pm 26.2 21.9 10.8 38 8.8 ESE 24 30 13 16 1014.0 1011.8 0.0
11/09:00pm 26.8 21.7 10.5 36 9.3 ESE 28 37 15 20 1013.3 1011.1 0.0
11/08:30pm 27.7 22.9 9.0 31 10.5 ESE 24 32 13 17 1012.9 1010.7 0.0
11/08:00pm 28.5 23.5 6.6 25 11.8 SE 22 32 12 17 1012.2 1010.0 0.0
11/07:30pm 29.7 24.2 5.7 22 12.8 ESE 24 33 13 18 1011.5 1009.3 0.0
11/07:00pm 31.0 25.3 4.7 19 14.0 ESE 24 33 13 18 1011.1 1008.9 0.0
11/06:30pm 32.1 25.9 2.2 15 15.3 ESE 24 37 13 20 1010.7 1008.5 0.0
11/06:00pm 33.4 27.6 2.3 14 16.1 SE 22 30 12 16 1010.6 1008.4 0.0
11/05:30pm 34.1 28.8 2.8 14 16.4 SE 20 28 11 15 1010.8 1008.6 0.0
11/05:00pm 33.7 27.7 3.5 15 16.0 SE 24 35 13 19 1010.9 1008.7 0.0
11/04:30pm 34.6 28.8 2.2 13 16.8 ESE 22 37 12 20 1011.0 1008.8 0.0
11/04:00pm 35.2 29.1 2.6 13 17.1 ESE 24 35 13 19 1011.1 1008.9 0.0
11/03:30pm 34.5 28.3 2.1 13 16.8 SSE 24 35 13 19 1011.4 1009.2 0.0
11/03:00pm 34.7 30.4 5.2 16 16.1 SE 17 26 9 14 1011.7 1009.5 0.0
11/02:30pm 33.7 30.7 6.1 18 15.2 S 11 22 6 12 1012.2 1010.0 0.0
11/02:00pm 32.5 28.7 5.9 19 14.5 SSE 15 24 8 13 1012.8 1010.6 0.0
11/01:30pm 32.6 29.0 6.7 20 14.3 SSE 15 26 8 14 1013.0 1010.8 0.0
11/01:00pm 32.3 29.2 7.2 21 14.0 SSE 13 20 7 11 1013.5 1011.3 0.0
11/12:30pm 30.3 29.0 9.8 28 11.8 NW 7 13 4 7 1013.9 1011.7 0.0
11/12:00pm 29.3 27.6 9.9 30 11.1 S 9 20 5 11 1014.3 1012.1 0.0
11/11:30am 29.4 28.4 11.0 32 10.7 SSW 7 15 4 8 1014.6 1012.4 0.0
11/11:00am 27.7 26.7 10.9 35 9.7 ESE 7 15 4 8 1014.9 1012.7 0.0
11/10:30am 26.7 25.6 12.0 40 8.6 NW 9 13 5 7 1015.1 1013.0 0.0
11/10:00am 25.9 25.2 12.0 42 8.1 SSE 7 11 4 6 1015.3 1013.2 0.0
11/09:30am 24.5 24.0 12.1 46 7.2 NNW 6 11 3 6 1015.7 1013.5 0.0
11/09:00am 24.2 23.8 12.5 48 6.8 E 6 11 3 6 1015.8 1013.6 0.0
11/08:30am 22.1 21.5 11.8 52 5.9 SSE 6 9 3 5 1015.6 1013.4 0.0
11/08:00am 20.5 19.9 12.2 59 4.7 SE 7 9 4 5 1015.6 1013.4 0.0
11/07:30am 18.6 18.1 12.8 69 3.3 SE 7 9 4 5 1015.0 1012.9 0.0
11/07:00am 16.6 14.9 12.4 76 2.4 SSE 13 15 7 8 1014.5 1012.3 0.0
11/06:30am 15.4 13.5 11.8 79 2.0 SSE 13 15 7 8 1014.0 1011.8 0.0
11/06:00am 15.6 13.3 11.8 78 2.1 SSE 15 15 8 8 1013.8 1011.6 0.0
11/05:30am 16.2 14.4 12.0 76 2.3 SSE 13 15 7 8 1013.5 1011.3 0.0
11/05:00am 16.4 14.6 12.0 75 2.5 S 13 15 7 8 1013.3 1011.1 0.0
11/04:30am 16.5 15.0 11.9 74 2.6 SE 11 15 6 8 1013.2 1011.0 0.0
11/04:00am 16.9 14.7 12.0 73 2.7 SSE 15 15 8 8 1013.1 1010.9 0.0
11/03:30am 17.4 15.2 12.1 71 3.0 SSE 15 17 8 9 1013.1 1010.9 0.0
11/03:00am 17.9 15.7 12.1 69 3.3 SSE 15 17 8 9 1013.3 1011.1 0.0
11/02:30am 18.3 16.1 12.1 67 3.5 SSE 15 17 8 9 1013.4 1011.2 0.0
11/02:00am 19.1 16.8 11.7 62 4.2 S 15 17 8 9 1013.6 1011.4 0.0
11/01:30am 20.1 17.6 12.3 61 4.5 S 17 19 9 10 1013.7 1011.5 0.0
11/01:00am 20.3 17.3 12.0 59 4.7 S 19 20 10 11 1013.8 1011.6 0.0
11/12:30am 19.6 18.4 11.6 60 4.5 S 9 11 5 6 1013.8 1011.6 0.0
11/12:21am 19.6 18.0 11.6 60 4.5 SSW 11 13 6 7 1013.8 1011.6 0.0
11/12:04am 19.9 18.9 10.9 56 5.0 SSW 7 9 4 5 1013.9 1011.7 0.0
11/12:00am 20.5 19.7 10.9 54 5.4 SSW 6 9 3 5 1014.0 1011.8 0.0
 
Date/Time
EDT
Temp
°C
App
Temp
°C
Dew
Point
Rel
Hum
%
Delta-T
°C
Wind Press
QNH
hPa
Press
MSL
hPa
Rain
since 9 am
mm
Dir
 
Spd
km/h
Gust
km/h
Spd
kts
Gust
kts
10/11:30pm 23.1 21.6 11.8 49 6.5 ENE 11 15 6 8 1013.9 1011.7 0.0
10/11:00pm 24.6 22.0 11.9 45 7.4 E 17 20 9 11 1014.0 1011.8 0.0
10/10:30pm 25.4 22.4 11.9 43 7.8 E 19 24 10 13 1014.4 1012.2 0.0
10/10:00pm 25.3 21.7 10.7 40 8.3 SE 20 24 11 13 1014.3 1012.1 0.0
10/09:30pm 24.8 20.8 8.3 35 9.0 SSE 19 22 10 12 1013.9 1011.7 0.0
10/09:00pm 25.2 20.9 6.9 31 9.7 S 19 22 10 12 1013.5 1011.3 0.0
10/08:30pm 26.6 22.2 6.6 28 10.7 S 19 24 10 13 1013.2 1011.0 0.0
10/08:00pm 27.2 23.3 7.1 28 10.9 S 17 20 9 11 1012.9 1010.7 0.0
10/07:30pm 29.5 26.3 6.8 24 12.4 S 13 19 7 10 1012.5 1010.3 0.0
10/07:00pm 30.8 28.2 7.9 24 12.8 S 11 17 6 9 1012.1 1009.9 0.0
10/06:30pm 31.7 28.8 8.0 23 13.3 SSW 13 20 7 11 1011.9 1009.7 0.0
10/06:00pm 31.7 29.2 6.7 21 13.8 WSW 9 15 5 8 1011.8 1009.6 0.0
10/05:30pm 31.9 28.7 6.9 21 13.8 S 13 24 7 13 1011.8 1009.6 0.0
10/05:00pm 32.1 29.5 6.3 20 14.1 WNW 9 17 5 9 1011.9 1009.7 0.0
10/04:30pm 31.4 27.7 2.6 16 14.8 SW 11 15 6 8 1012.2 1010.0 0.0
10/04:00pm 31.8 27.7 2.0 15 15.2 SSE 13 22 7 12 1012.5 1010.3 0.0
10/03:30pm 31.2 27.9 2.4 16 14.7 SE 9 19 5 10 1013.0 1010.8 0.0
10/03:00pm 30.6 26.5 4.4 19 13.8 SSW 15 28 8 15 1013.3 1011.1 0.0
10/02:30pm 30.7 27.1 5.2 20 13.6 SSE 13 24 7 13 1013.8 1011.6 0.0
10/02:00pm 30.2 27.9 5.5 21 13.2 NE 7 17 4 9 1014.1 1011.9 0.0
10/01:30pm 29.5 26.5 4.2 20 13.2 NE 9 15 5 8 1014.6 1012.4 0.0
10/01:00pm 28.4 25.0 5.9 24 12.0 S 13 26 7 14 1014.9 1012.7 0.0
10/12:30pm 28.2 24.2 5.1 23 12.1 SE 15 22 8 12 1015.5 1013.3 0.0
10/12:00pm 27.6 24.8 6.9 27 11.2 SSE 11 20 6 11 1015.9 1013.7 0.0
10/11:30am 26.7 23.2 7.2 29 10.5 ESE 15 20 8 11 1016.5 1014.3 0.0
10/11:00am 25.2 22.6 7.8 33 9.4 SE 11 22 6 12 1016.8 1014.6 0.0
10/10:30am 25.0 22.7 8.9 36 8.9 NE 11 17 6 9 1016.9 1014.7 0.0
10/10:00am 23.4 20.7 9.0 40 7.9 SE 13 20 7 11 1017.2 1015.0 0.0
10/09:30am 23.1 20.2 9.8 43 7.4 ESE 15 26 8 14 1017.3 1015.2 0.0
10/09:00am 22.6 20.0 10.7 47 6.7 ESE 15 24 8 13 1017.3 1015.2 -
10/08:30am 21.2 18.7 11.2 53 5.6 SE 15 20 8 11 1017.1 1014.9 -
10/08:00am 19.8 17.1 11.6 59 4.6 SE 17 19 9 10 1017.0 1014.8 -

Other Formats:

Comma delimited format used in spreadsheet applications
http://www.bom.gov.au/fwo/IDN60801/IDN60801.95762.axf

JavaScript Object Notation format (JSON) in row-major order
http://www.bom.gov.au/fwo/IDN60801/IDN60801.95762.json